map of KWE home
KWE - Airport
Location
City:  Guiyang, Guizhou, China
Name:Guiyang Longdongbao International Airport
ICAO:ZUGY
IATA:KWE

Details
Type:Airport (Aerodrome, Airfield)
Use:Public/Civil, International (customs port of entry)
Latitude:2632'N (26.537)
Longitude:10648'E (106.800)
Elevation:3737 ft (1139 m)
Variation:2.32W (WMM2015v2 magnetic declination)
-0.06 annual change
Runways:1
Longest:10499 × 148 ft (3200 × 45 m), paved

Time
Time Zone:UTC+8
Local Time:

Weather
METAR:ZUGY 041400Z 36003MPS 8000 SCT013 OVC026 06/03 Q1019 NOSIG

Related Locations
Nearby:
Farthest:SCCL: 12292 mi / 19782 km
Caldera, AT, CL

Find:

   beyond  
but within

Other Information
Maps:
NOTAMs:
Links:
Sources:

  
  • flag of China
  

Sectional Chart

Flight Planning
at skyvector.com

Satellite Image

Google Maps Satellite view

 

Copyright © 2004-2019 Karl L. Swartz. All rights reserved.
The Great Circle Mapper name and logo are trademarks of the Great Circle Mapper.
All other trademarks mentioned herein belong to their respective owners.
Please see credits for attibutions and further copyright information.

  Follow gcmap on Facebook Follow gcmap on Twitter GCmap on LinkedIn

hCard Microformat

Geo Microformat